Time;durP1;ratioP1;P1;durP2;ratioP2;P2;SDS_P1;SDS_P2;PMS_P1;PMS_P2;Temp;Humidity;BMP_temperature;BMP_pressure;BME280_temperature;BME280_humidity;BME280_pressure;Samples;Min_cycle;Max_cycle;Signal;HPM_P1;HPM_P2
2022/07/22 00:05:39;;;;;;;6.37;1.90;;;;;;;27.66;29.38;100383.28;20562215;28;101392;-77
2022/07/22 00:15:40;;;;;;;6.30;2.15;;;;;;;27.60;30.04;100387.41;20592531;28;98865;-77
2022/07/22 00:25:40;;;;;;;4.03;1.85;;;;;;;27.50;30.07;100391.19;20578396;28;97656;-76
2022/07/22 00:35:41;;;;;;;8.27;2.50;;;;;;;27.41;30.44;100393.81;20582165;28;100266;-77
2022/07/22 00:45:42;;;;;;;6.83;2.50;;;;;;;27.34;30.80;100392.75;20607108;28;98403;-77
2022/07/22 00:55:42;;;;;;;4.05;2.40;;;;;;;27.28;31.21;100394.22;20611911;28;97646;-77
2022/07/22 01:05:42;;;;;;;3.28;2.45;;;;;;;27.22;32.09;100392.22;20611673;28;100924;-77
2022/07/22 01:15:43;;;;;;;4.38;2.67;;;;;;;27.11;32.86;100403.09;20594860;28;100646;-78
2022/07/22 01:25:43;;;;;;;5.70;2.50;;;;;;;26.68;33.90;100408.28;20591044;28;97849;-78
2022/07/22 01:35:45;;;;;;;3.92;2.83;;;;;;;26.52;34.47;100407.19;20661552;28;97252;-78
2022/07/22 01:45:47;;;;;;;6.72;2.55;;;;;;;26.46;35.08;100397.16;20655610;28;99360;-77
2022/07/22 01:55:49;;;;;;;7.30;2.90;;;;;;;26.60;35.17;100409.06;20658349;28;99038;-78
2022/07/22 02:05:49;;;;;;;5.38;3.03;;;;;;;26.46;35.41;100409.59;20656590;28;97759;-78
2022/07/22 02:15:50;;;;;;;8.93;3.22;;;;;;;26.39;35.55;100414.72;20667992;28;101245;-77
2022/07/22 02:25:51;;;;;;;6.20;3.60;;;;;;;26.13;36.27;100414.63;20640337;27;100412;-77
2022/07/22 02:35:51;;;;;;;6.63;3.05;;;;;;;26.09;36.26;100429.19;20657922;28;97668;-77
2022/07/22 02:45:52;;;;;;;9.70;3.30;;;;;;;25.82;36.92;100437.00;20664167;28;97333;-78
2022/07/22 02:55:52;;;;;;;6.25;3.10;;;;;;;25.64;37.66;100436.13;20655043;27;100683;-77
2022/07/22 03:05:53;;;;;;;7.47;3.22;;;;;;;25.57;37.72;100442.00;20663094;28;100837;-76
2022/07/22 03:15:53;;;;;;;9.55;3.70;;;;;;;25.49;37.72;100443.72;20657497;28;101390;-78
2022/07/22 03:25:56;;;;;;;8.10;3.70;;;;;;;25.36;38.03;100450.13;20666133;27;97882;-77
2022/07/22 03:35:57;;;;;;;10.65;3.70;;;;;;;25.26;37.97;100462.59;20668828;27;98396;-77
2022/07/22 03:45:57;;;;;;;10.45;4.28;;;;;;;25.19;39.22;100464.16;20674041;28;97621;-77
2022/07/22 03:55:58;;;;;;;7.70;3.83;;;;;;;25.21;39.23;100455.06;20667666;28;97300;-76
2022/07/22 04:05:59;;;;;;;12.70;6.27;;;;;;;25.28;39.23;100457.16;20665837;28;99001;-77
2022/07/22 04:16:00;;;;;;;10.37;3.77;;;;;;;25.24;39.26;100459.25;20680869;27;99201;-77
2022/07/22 04:26:00;;;;;;;8.97;3.73;;;;;;;25.29;39.63;100454.34;20675657;27;100767;-77
2022/07/22 04:36:01;;;;;;;9.33;4.07;;;;;;;25.29;40.08;100454.34;20616884;28;99297;-76
2022/07/22 04:46:01;;;;;;;8.95;3.60;;;;;;;25.38;39.07;100448.22;20652140;27;97225;-76
2022/07/22 04:56:02;;;;;;;9.00;4.32;;;;;;;25.48;38.90;100448.19;20611214;27;98263;-76
2022/07/22 05:06:02;;;;;;;15.35;3.92;;;;;;;25.59;39.41;100459.59;20595695;28;97699;-76
2022/07/22 05:16:04;;;;;;;8.05;3.00;;;;;;;25.66;36.07;100466.81;20644460;28;98455;-76
2022/07/22 05:26:05;;;;;;;;;;;;;;;25.77;34.64;100463.13;20600747;27;99706;-76
2022/07/22 05:36:06;;;;;;;6.47;2.50;;;;;;;25.87;34.04;100473.69;20567842;28;100547;-75
2022/07/22 05:46:09;;;;;;;7.60;2.43;;;;;;;25.99;34.34;100467.19;20579882;28;97185;-77
2022/07/22 05:56:11;;;;;;;5.72;2.25;;;;;;;26.12;32.02;100471.34;20590966;28;98257;-78
2022/07/22 06:06:11;;;;;;;4.10;1.70;;;;;;;26.21;31.86;100473.91;20590157;28;97185;-76
2022/07/22 06:16:11;;;;;;;7.03;2.00;;;;;;;26.33;31.27;100477.19;20603038;28;97865;-76
2022/07/22 06:26:12;;;;;;;5.18;2.15;;;;;;;26.47;32.66;100480.31;20605074;28;97196;-76
2022/07/22 06:36:14;;;;;;;3.30;2.00;;;;;;;26.57;32.08;100483.72;20591949;28;97542;-76
2022/07/22 06:46:14;;;;;;;3.10;1.52;;;;;;;26.69;33.36;100471.03;20578601;28;101177;-77
2022/07/22 06:56:15;;;;;;;5.10;2.05;;;;;;;26.79;32.93;100470.97;20651424;27;99050;-76
2022/07/22 07:06:15;;;;;;;2.97;2.00;;;;;;;26.88;32.90;100463.91;20670326;27;99448;-76
2022/07/22 07:16:16;;;;;;;6.30;1.88;;;;;;;26.96;31.90;100470.09;20668909;28;98309;-77
2022/07/22 07:26:17;;;;;;;3.50;1.80;;;;;;;27.05;31.65;100462.19;20685742;28;97337;-77
2022/07/22 07:36:19;;;;;;;7.05;2.10;;;;;;;27.13;31.46;100459.59;20656646;28;101547;-77
2022/07/22 07:46:19;;;;;;;1.63;1.52;;;;;;;27.22;31.55;100452.50;20657685;27;98209;-77
2022/07/22 07:56:20;;;;;;;2.15;1.55;;;;;;;27.30;30.30;100464.00;20666594;28;101796;-77
2022/07/22 08:06:20;;;;;;;5.15;1.65;;;;;;;27.39;29.95;100459.59;20666073;28;100665;-77
2022/07/22 08:16:21;;;;;;;4.43;1.50;;;;;;;27.40;30.49;100453.25;20671359;27;101293;-77
2022/07/22 08:26:21;;;;;;;2.92;1.67;;;;;;;27.42;31.51;100448.66;20677774;27;98308;-76
2022/07/22 08:36:21;;;;;;;2.85;1.90;;;;;;;27.46;32.16;100451.84;20678547;28;97294;-77
2022/07/22 08:46:22;;;;;;;4.70;2.03;;;;;;;27.50;32.70;100447.03;20669466;28;97433;-77
2022/07/22 08:56:22;;;;;;;3.42;1.70;;;;;;;27.54;32.68;100443.03;20590470;28;98953;-77
2022/07/22 09:06:26;;;;;;;6.63;1.60;;;;;;;27.58;33.00;100447.06;20675937;27;99100;-78
2022/07/22 09:16:39;;;;;;;2.33;1.70;;;;;;;27.58;33.15;100437.25;20666511;28;98690;-76
2022/07/22 09:26:39;;;;;;;1.77;1.50;;;;;;;27.60;33.26;100424.63;20710867;28;98393;-78
2022/07/22 09:36:57;;;;;;;3.95;1.30;;;;;;;27.64;33.46;100423.31;20719332;28;98988;-78
2022/07/22 09:46:57;;;;;;;2.28;1.30;;;;;;;27.67;33.93;100414.16;20717040;28;101057;-78
2022/07/22 09:56:59;;;;;;;1.50;1.40;;;;;;;27.72;34.78;100414.53;20707991;28;99481;-77
2022/07/22 10:07:01;;;;;;;2.95;1.42;;;;;;;27.76;34.99;100407.88;20706191;28;98552;-76
2022/07/22 10:17:02;;;;;;;3.35;1.50;;;;;;;27.80;35.32;100403.91;20709920;28;97580;-78
2022/07/22 10:27:03;;;;;;;;;;;;;;;27.85;35.22;100390.13;20713104;27;96967;-78
2022/07/22 10:37:03;;;;;;;3.00;1.48;;;;;;;27.88;35.16;100384.47;20708563;27;97739;-78
2022/07/22 10:47:04;;;;;;;1.43;1.27;;;;;;;27.93;35.04;100376.00;20688829;28;98724;-78
2022/07/22 10:57:04;;;;;;;3.90;1.00;;;;;;;27.98;35.46;100371.03;20689140;28;97483;-79
2022/07/22 11:07:05;;;;;;;1.30;1.10;;;;;;;28.03;35.05;100355.38;20705560;28;97756;-81
2022/07/22 11:17:10;;;;;;;;;;;;;;;28.07;35.12;100345.28;22366506;22;101954;-75
2022/07/22 11:27:15;;;;;;;2.47;1.02;;;;;;;28.12;35.21;100342.94;20691984;28;98048;-79
2022/07/22 11:37:18;;;;;;;2.00;1.25;;;;;;;28.18;35.18;100328.13;20653832;28;98602;-79
2022/07/22 11:47:18;;;;;;;1.52;0.98;;;;;;;28.26;35.39;100317.50;20686477;28;99346;-77
2022/07/22 11:57:19;;;;;;;1.23;1.13;;;;;;;28.32;35.57;100308.84;20722547;28;97052;-77
2022/07/22 12:07:20;;;;;;;1.30;1.20;;;;;;;28.38;35.59;100299.31;20691572;28;98782;-77
2022/07/22 12:17:27;;;;;;;1.67;1.10;;;;;;;28.43;35.72;100284.50;20717292;28;97176;-78
2022/07/22 12:27:30;;;;;;;1.00;0.90;;;;;;;28.50;35.81;100273.16;20696776;28;97216;-78
2022/07/22 12:37:34;;;;;;;1.00;0.90;;;;;;;28.59;37.64;100261.50;20694635;28;99066;-78
2022/07/22 12:48:03;;;;;;;3.53;1.20;;;;;;;28.71;37.24;100248.66;20716414;28;97312;-78
2022/07/22 12:58:05;;;;;;;2.30;1.17;;;;;;;28.83;37.90;100230.47;20682179;28;97249;-79
2022/07/22 13:08:05;;;;;;;3.60;1.13;;;;;;;28.90;37.74;100228.75;20716588;28;97252;-78
2022/07/22 13:18:06;;;;;;;2.40;1.00;;;;;;;28.98;38.10;100222.53;20726395;28;97070;-79
2022/07/22 13:28:06;;;;;;;5.28;1.20;;;;;;;29.04;39.07;100206.69;20694533;28;98423;-77
2022/07/22 13:38:07;;;;;;;4.03;1.50;;;;;;;29.15;39.21;100204.63;20700009;28;97628;-77
2022/07/22 13:48:07;;;;;;;1.73;1.20;;;;;;;29.20;39.44;100194.28;20691546;28;97148;-78
2022/07/22 13:58:08;;;;;;;4.32;1.50;;;;;;;29.27;39.40;100189.06;20703004;28;98772;-77
2022/07/22 14:08:09;;;;;;;8.43;1.30;;;;;;;29.30;39.57;100178.91;20607543;28;99940;-78
2022/07/22 14:18:09;;;;;;;4.70;1.33;;;;;;;29.37;40.11;100171.84;20696297;28;98225;-75
2022/07/22 14:28:11;;;;;;;2.17;1.20;;;;;;;29.38;39.72;100165.50;20700320;28;101502;-75
2022/07/22 14:38:12;;;;;;;4.25;1.58;;;;;;;29.43;39.39;100156.13;20693526;28;101294;-76
2022/07/22 14:48:12;;;;;;;2.05;1.17;;;;;;;29.46;38.97;100147.78;20692092;28;97578;-77
2022/07/22 14:58:13;;;;;;;3.58;1.02;;;;;;;29.50;39.20;100146.41;20677334;28;97845;-76
2022/07/22 15:08:15;;;;;;;9.10;1.50;;;;;;;29.53;39.13;100148.72;20683470;28;100477;-79
2022/07/22 15:18:15;;;;;;;12.25;1.50;;;;;;;29.55;39.23;100136.00;20686425;28;98911;-80
2022/07/22 15:28:16;;;;;;;2.83;0.98;;;;;;;29.60;41.49;100147.00;20697440;28;100040;-77
2022/07/22 15:38:16;;;;;;;4.28;1.08;;;;;;;29.59;41.48;100131.13;20691253;28;98310;-77
2022/07/22 15:48:19;;;;;;;2.67;1.20;;;;;;;29.61;41.02;100134.47;20679540;28;98565;-80
2022/07/22 16:08:39;;;;;;;1.75;1.05;;;;;;;29.65;41.63;100119.75;21157522;22;99202;-75
2022/07/22 16:18:40;;;;;;;2.80;1.20;;;;;;;29.65;42.02;100119.75;20762763;27;98746;-76
2022/07/22 16:28:45;;;;;;;4.50;1.20;;;;;;;29.64;43.48;100121.59;20760647;27;99692;-76
2022/07/22 16:38:45;;;;;;;4.80;1.40;;;;;;;29.65;43.09;100123.25;20691388;28;99516;-73
2022/07/22 16:48:46;;;;;;;6.75;1.40;;;;;;;29.65;42.85;100123.25;20682869;28;98057;-72
2022/07/22 16:58:47;;;;;;;4.68;1.55;;;;;;;29.65;43.62;100119.75;20682708;28;98829;-82
2022/07/22 17:08:48;;;;;;;6.93;1.50;;;;;;;29.63;42.67;100119.13;20658192;28;98587;-74
2022/07/22 17:18:48;;;;;;;4.30;1.80;;;;;;;29.66;42.86;100119.59;20671765;28;105442;-75
2022/07/22 17:28:49;;;;;;;8.38;1.70;;;;;;;29.76;42.67;100126.47;20759727;27;98765;-76
2022/07/22 17:38:50;;;;;;;10.52;7.90;;;;;;;29.86;43.35;100130.53;20705211;27;98045;-76
2022/07/22 17:48:50;;;;;;;23.55;12.02;;;;;;;29.97;43.87;100136.47;20733991;27;98613;-75
2022/07/22 17:58:51;;;;;;;21.63;12.32;;;;;;;30.03;43.75;100139.22;20746959;27;97290;-76
2022/07/22 18:08:52;;;;;;;18.90;12.23;;;;;;;30.10;43.61;100142.00;20754780;27;99503;-75
2022/07/22 18:18:52;;;;;;;20.77;10.45;;;;;;;30.11;44.25;100154.31;20785028;27;98017;-77
2022/07/22 18:28:53;;;;;;;9.27;6.40;;;;;;;30.15;41.31;100160.13;20760112;27;97251;-77
2022/07/22 18:38:54;;;;;;;6.63;5.03;;;;;;;30.15;39.46;100168.13;20768963;27;98980;-78
2022/07/22 18:48:54;;;;;;;7.55;4.43;;;;;;;30.15;37.39;100177.00;20776869;27;98029;-77
2022/07/22 18:58:54;;;;;;;8.73;4.72;;;;;;;30.14;38.52;100182.53;20758292;27;97356;-78
2022/07/22 19:08:57;;;;;;;;;;;;;;;30.13;37.65;100188.88;20651943;28;102238;-76
2022/07/22 19:18:58;;;;;;;5.28;4.13;;;;;;;30.11;38.20;100194.38;20713846;27;97259;-77
2022/07/22 19:28:58;;;;;;;9.00;4.50;;;;;;;30.10;38.66;100203.41;20719918;27;97362;-78
2022/07/22 19:38:59;;;;;;;7.45;5.10;;;;;;;30.03;38.32;100205.16;20748132;27;99007;-77
2022/07/22 19:49:00;;;;;;;8.27;4.70;;;;;;;29.92;38.53;100208.25;20744862;27;101183;-79
2022/07/22 19:59:01;;;;;;;9.20;4.60;;;;;;;29.86;38.91;100212.47;20828156;22;98445;-77
2022/07/22 20:09:02;;;;;;;8.37;4.90;;;;;;;29.80;38.81;100222.00;20661466;28;98588;-77
2022/07/22 20:19:04;;;;;;;8.68;4.60;;;;;;;29.74;37.96;100220.06;20659697;28;98913;-79
2022/07/22 20:29:05;;;;;;;7.90;4.82;;;;;;;29.70;39.04;100208.09;20692139;28;100880;-77
2022/07/22 20:39:05;;;;;;;8.07;4.85;;;;;;;29.65;38.79;100210.47;20678804;28;99138;-78
2022/07/22 20:49:06;;;;;;;6.25;4.55;;;;;;;29.60;39.18;100212.84;20686596;28;101310;-78
2022/07/22 20:59:06;;;;;;;8.50;4.78;;;;;;;29.55;39.40;100226.72;20592034;28;98175;-77
2022/07/22 21:09:07;;;;;;;5.45;4.60;;;;;;;29.52;38.66;100224.41;20581732;28;98757;-78
2022/07/22 21:19:09;;;;;;;5.78;4.60;;;;;;;29.47;38.29;100222.28;20603458;28;99659;-77
2022/07/22 21:29:09;;;;;;;9.85;5.47;;;;;;;29.40;38.34;100232.00;20602544;28;98142;-77
2022/07/22 21:39:10;;;;;;;9.40;5.45;;;;;;;29.27;38.01;100231.72;20592643;28;98975;-77
2022/07/22 21:49:11;;;;;;;10.55;5.55;;;;;;;29.21;38.86;100233.25;20600239;28;100359;-79
2022/07/22 21:59:13;;;;;;;7.97;5.53;;;;;;;29.16;39.42;100231.13;20682479;28;98215;-77
2022/07/22 22:09:14;;;;;;;10.13;5.63;;;;;;;28.99;38.84;100224.22;20682652;28;100759;-77
2022/07/22 22:19:15;;;;;;;11.52;5.90;;;;;;;28.86;39.15;100225.63;20692251;28;98390;-78
2022/07/22 22:29:16;;;;;;;7.90;5.80;;;;;;;28.75;39.39;100237.47;20707865;28;97878;-77
2022/07/22 22:39:17;;;;;;;10.47;5.77;;;;;;;28.69;39.44;100245.34;20691308;28;97565;-80
2022/07/22 22:49:18;;;;;;;13.90;6.13;;;;;;;28.59;39.69;100242.84;20673784;28;98911;-79
2022/07/22 22:59:18;;;;;;;17.25;5.78;;;;;;;28.52;39.91;100234.69;20667047;28;97779;-81
2022/07/22 23:09:19;;;;;;;8.88;5.75;;;;;;;28.49;39.82;100228.88;20690194;28;99951;-79
2022/07/22 23:19:19;;;;;;;7.07;5.90;;;;;;;28.39;40.59;100229.94;20688805;28;98719;-79
2022/07/22 23:29:21;;;;;;;8.60;6.00;;;;;;;28.33;40.29;100235.94;20687272;28;97639;-78
2022/07/22 23:39:23;;;;;;;14.02;5.90;;;;;;;28.35;40.50;100222.44;20679274;28;98295;-79
2022/07/22 23:49:25;;;;;;;10.63;6.18;;;;;;;28.39;40.84;100224.59;20710660;28;99174;-80
2022/07/22 23:59:28;;;;;;;9.70;5.88;;;;;;;28.39;40.78;100221.94;20620449;28;97753;-82
